Time;durP1;ratioP1;P1;durP2;ratioP2;P2;SDS_P1;SDS_P2;PMS_P1;PMS_P2;Temp;Humidity;BMP_temperature;BMP_pressure;BME280_temperature;BME280_humidity;BME280_pressure;Samples;Min_cycle;Max_cycle;Signal;HPM_P1;HPM_P2
2024/02/28 00:01:52;;;;;;;10.70;6.82;;;9.80;71.70;;;;;;2586264;53;20927;-66
2024/02/28 00:04:19;;;;;;;10.73;6.15;;;9.80;71.70;;;;;;2339489;54;20971;-65
2024/02/28 00:06:48;;;;;;;10.85;6.95;;;9.80;71.70;;;;;;2340091;54;21000;-66
2024/02/28 00:09:15;;;;;;;9.57;6.78;;;9.80;71.70;;;;;;2339881;55;21675;-66
2024/02/28 00:11:45;;;;;;;10.35;6.97;;;9.70;71.60;;;;;;2586501;53;21018;-65
2024/02/28 00:14:13;;;;;;;9.95;6.07;;;9.70;71.50;;;;;;2340356;55;21018;-65
2024/02/28 00:16:42;;;;;;;9.13;5.95;;;9.70;71.60;;;;;;2340285;54;21259;-66
2024/02/28 00:19:11;;;;;;;10.55;6.03;;;9.70;71.50;;;;;;2586487;53;21456;-65
2024/02/28 00:21:39;;;;;;;10.07;6.00;;;9.60;71.60;;;;;;2586762;53;20979;-64
2024/02/28 00:24:05;;;;;;;10.38;6.80;;;9.60;71.70;;;;;;2339653;54;20947;-65
2024/02/28 00:26:31;;;;;;;12.02;7.30;;;9.60;71.80;;;;;;2339867;55;20995;-66
2024/02/28 00:28:58;;;;;;;11.88;7.65;;;9.60;72.60;;;;;;2340532;54;20960;-64
2024/02/28 00:31:24;;;;;;;11.48;7.47;;;9.60;72.10;;;;;;2328775;54;21021;-66
2024/02/28 00:33:52;;;;;;;13.30;8.05;;;9.50;72.10;;;;;;2559974;53;21967;-65
2024/02/28 00:36:18;;;;;;;14.02;9.10;;;9.50;72.20;;;;;;2340420;55;20931;-64
2024/02/28 00:38:47;;;;;;;13.32;9.00;;;9.60;72.50;;;;;;2316497;54;21145;-65
2024/02/28 00:41:30;;;;;;;15.25;9.95;;;9.60;72.70;;;;;;2340667;54;21011;-65
2024/02/28 00:43:56;;;;;;;13.93;9.35;;;9.60;72.80;;;;;;2586159;53;21003;-65
2024/02/28 00:46:22;;;;;;;15.27;9.55;;;9.60;73.00;;;;;;2340400;55;21007;-65
2024/02/28 00:48:52;;;;;;;14.73;9.52;;;9.60;73.20;;;;;;2585440;53;21026;-66
2024/02/28 00:51:19;;;;;;;16.10;10.63;;;9.60;73.30;;;;;;2340121;54;20939;-65
2024/02/28 00:53:45;;;;;;;17.08;10.63;;;9.60;73.50;;;;;;2585669;53;20955;-66
2024/02/28 00:56:12;;;;;;;14.95;10.20;;;9.70;73.60;;;;;;2341714;54;20945;-65
2024/02/28 00:58:38;;;;;;;14.93;9.93;;;9.70;73.70;;;;;;2320787;54;21020;-66
2024/02/28 01:01:05;;;;;;;15.32;10.20;;;9.70;73.80;;;;;;2332672;55;21244;-65
2024/02/28 01:03:31;;;;;;;16.33;10.80;;;9.80;73.90;;;;;;2585904;53;20920;-66
2024/02/28 01:06:00;;;;;;;17.42;10.90;;;9.80;73.90;;;;;;2340105;55;20959;-66
2024/02/28 01:08:27;;;;;;;16.65;10.80;;;9.80;74.00;;;;;;2340358;54;21611;-65
2024/02/28 01:10:54;;;;;;;17.75;11.35;;;9.90;74.10;;;;;;2340309;54;20912;-65
2024/02/28 01:13:20;;;;;;;18.58;11.45;;;9.90;74.00;;;;;;2585659;53;20971;-66
2024/02/28 01:15:47;;;;;;;16.73;11.43;;;9.90;74.00;;;;;;2585933;53;21221;-66
2024/02/28 01:18:14;;;;;;;19.12;11.52;;;9.90;74.00;;;;;;2340343;54;20976;-65
2024/02/28 01:20:40;;;;;;;17.62;11.55;;;10.00;73.00;;;;;;2339875;54;21008;-65
2024/02/28 01:23:07;;;;;;;20.15;11.90;;;10.00;73.00;;;;;;2586285;53;21696;-66
2024/02/28 01:25:33;;;;;;;17.17;11.55;;;10.00;72.90;;;;;;2339931;54;21192;-65
2024/02/28 01:27:59;;;;;;;18.15;11.48;;;10.10;73.00;;;;;;2340340;55;20973;-65
2024/02/28 01:30:26;;;;;;;17.25;11.77;;;10.10;72.90;;;;;;2586288;53;21436;-65
2024/02/28 01:32:52;;;;;;;16.17;11.12;;;10.10;72.90;;;;;;2340200;55;20962;-66
2024/02/28 01:35:20;;;;;;;17.40;12.05;;;10.10;72.80;;;;;;2339720;54;20987;-65
2024/02/28 01:37:47;;;;;;;16.45;10.60;;;10.20;72.80;;;;;;2585850;53;21019;-65
2024/02/28 01:40:13;;;;;;;20.20;12.48;;;10.20;72.80;;;;;;2340002;54;20952;-66
2024/02/28 01:42:39;;;;;;;20.12;11.85;;;10.20;72.70;;;;;;2581967;53;20936;-65
2024/02/28 01:45:08;;;;;;;20.40;12.65;;;10.20;72.60;;;;;;2569970;53;20928;-65
2024/02/28 01:47:35;;;;;;;16.37;11.05;;;10.20;72.60;;;;;;2570778;53;20948;-66
2024/02/28 01:50:01;;;;;;;16.10;10.82;;;10.20;72.50;;;;;;2586706;53;21030;-65
2024/02/28 01:52:27;;;;;;;17.23;10.95;;;10.30;72.60;;;;;;2571551;53;20952;-66
2024/02/28 01:54:54;;;;;;;15.02;10.15;;;10.30;72.50;;;;;;2324952;54;21027;-65
2024/02/28 01:57:20;;;;;;;16.55;10.13;;;10.30;72.40;;;;;;2586185;53;21615;-65
2024/02/28 01:59:49;;;;;;;16.12;10.88;;;10.30;72.40;;;;;;2339758;55;21252;-65
2024/02/28 02:02:15;;;;;;;17.83;10.30;;;10.30;72.40;;;;;;2328633;54;21048;-66
2024/02/28 02:04:42;;;;;;;17.67;10.82;;;10.30;72.30;;;;;;2546934;53;20968;-65
2024/02/28 02:07:08;;;;;;;14.07;9.25;;;10.30;72.30;;;;;;2572150;53;21493;-65
2024/02/28 02:09:35;;;;;;;16.90;10.75;;;10.30;72.30;;;;;;2320513;54;20960;-65
2024/02/28 02:12:01;;;;;;;18.73;11.05;;;10.30;72.30;;;;;;2339471;54;21373;-65
2024/02/28 02:14:28;;;;;;;16.58;10.52;;;10.30;72.20;;;;;;2339973;55;20968;-66
2024/02/28 02:16:54;;;;;;;15.10;9.45;;;10.30;72.30;;;;;;2586437;53;20948;-65
2024/02/28 02:19:22;;;;;;;15.38;10.43;;;10.30;72.20;;;;;;2340597;55;21014;-66
2024/02/28 02:21:53;;;;;;;17.00;10.93;;;10.40;72.40;;;;;;2340024;54;20947;-66
2024/02/28 02:24:20;;;;;;;14.57;9.83;;;10.40;72.20;;;;;;2341072;55;20931;-65
2024/02/28 02:26:47;;;;;;;15.68;10.38;;;10.40;72.20;;;;;;2341323;54;21436;-65
2024/02/28 02:29:13;;;;;;;16.40;11.02;;;10.40;72.20;;;;;;2586651;53;20928;-66
2024/02/28 02:31:40;;;;;;;16.48;10.98;;;10.40;72.10;;;;;;2340636;54;20928;-65
2024/02/28 02:34:09;;;;;;;17.15;11.27;;;10.40;72.10;;;;;;2586900;53;21007;-65
2024/02/28 02:36:35;;;;;;;17.48;11.68;;;10.40;72.10;;;;;;2340274;55;20999;-65
2024/02/28 02:39:02;;;;;;;17.27;11.27;;;10.40;72.00;;;;;;2340287;55;20987;-64
2024/02/28 02:41:28;;;;;;;16.12;11.20;;;10.40;72.00;;;;;;2339733;55;20975;-65
2024/02/28 02:43:57;;;;;;;16.17;10.23;;;10.40;72.00;;;;;;2339942;55;21192;-65
2024/02/28 02:46:24;;;;;;;16.70;10.35;;;10.40;72.00;;;;;;2316574;54;20979;-66
2024/02/28 02:48:52;;;;;;;15.30;10.30;;;10.40;72.00;;;;;;2566239;53;20983;-65
2024/02/28 02:51:19;;;;;;;15.75;10.95;;;10.40;71.90;;;;;;2586808;53;20952;-66
2024/02/28 02:53:45;;;;;;;15.82;10.45;;;10.40;72.00;;;;;;2339435;55;21663;-65
2024/02/28 02:56:12;;;;;;;16.23;10.32;;;10.40;72.00;;;;;;2339369;54;21001;-65
2024/02/28 02:58:38;;;;;;;16.92;10.93;;;10.40;72.00;;;;;;2339113;54;21067;-66
2024/02/28 03:01:04;;;;;;;16.73;10.88;;;10.40;72.00;;;;;;2586798;53;20939;-65
2024/02/28 03:03:31;;;;;;;18.55;10.73;;;10.30;71.90;;;;;;2339720;55;20920;-66
2024/02/28 03:05:57;;;;;;;17.55;11.43;;;10.40;71.90;;;;;;2586224;53;21312;-66
2024/02/28 03:08:24;;;;;;;17.95;11.48;;;10.40;71.90;;;;;;2586862;53;20952;-66
2024/02/28 03:10:50;;;;;;;19.15;11.50;;;10.40;71.90;;;;;;2340170;54;20924;-65
2024/02/28 03:13:18;;;;;;;18.77;12.05;;;10.40;71.90;;;;;;2586944;53;21200;-65
2024/02/28 03:15:44;;;;;;;18.55;11.55;;;10.40;71.80;;;;;;2340214;54;20943;-65
2024/02/28 03:18:11;;;;;;;17.45;11.27;;;10.40;71.90;;;;;;2340469;55;21048;-65
2024/02/28 03:20:39;;;;;;;16.37;10.45;;;10.40;71.90;;;;;;2340714;54;21047;-65
2024/02/28 03:23:06;;;;;;;15.95;10.40;;;10.40;71.80;;;;;;2317119;55;21039;-65
2024/02/28 03:25:33;;;;;;;14.68;9.85;;;10.40;71.90;;;;;;2340471;55;21492;-66
2024/02/28 03:28:01;;;;;;;15.20;10.13;;;10.40;71.90;;;;;;2335802;54;21443;-65
2024/02/28 03:30:28;;;;;;;17.25;11.00;;;10.40;71.90;;;;;;2324712;54;20939;-64
2024/02/28 03:32:54;;;;;;;18.75;11.43;;;10.40;71.90;;;;;;2341116;55;21015;-65
2024/02/28 03:35:23;;;;;;;17.12;10.93;;;10.40;71.80;;;;;;2340411;55;20927;-66
2024/02/28 03:37:49;;;;;;;15.77;10.27;;;10.40;71.60;;;;;;2340160;55;21040;-65
2024/02/28 03:40:16;;;;;;;15.63;9.95;;;10.40;71.70;;;;;;2340842;54;21704;-66
2024/02/28 03:42:42;;;;;;;17.20;11.43;;;10.40;71.70;;;;;;2586216;53;20959;-65
2024/02/28 03:45:08;;;;;;;15.48;10.23;;;10.40;71.70;;;;;;2340986;54;20920;-66
2024/02/28 03:47:35;;;;;;;14.57;9.07;;;10.40;71.70;;;;;;2340352;55;21030;-65
2024/02/28 03:50:03;;;;;;;14.93;8.93;;;10.40;71.60;;;;;;2341067;54;20963;-65
2024/02/28 03:52:30;;;;;;;16.58;10.50;;;10.30;71.50;;;;;;2585991;53;21122;-66
2024/02/28 03:54:57;;;;;;;16.62;10.13;;;10.30;71.50;;;;;;2340056;54;21034;-66
2024/02/28 03:57:23;;;;;;;16.37;10.02;;;10.30;71.50;;;;;;2334182;54;21002;-67
2024/02/28 03:59:50;;;;;;;13.13;9.05;;;10.30;71.40;;;;;;2548680;53;21623;-65
2024/02/28 04:02:19;;;;;;;14.13;9.07;;;10.30;71.40;;;;;;2585161;53;20955;-65
2024/02/28 04:04:45;;;;;;;15.48;9.57;;;10.30;71.20;;;;;;2339375;54;22033;-65
2024/02/28 04:07:12;;;;;;;17.35;10.60;;;10.30;71.20;;;;;;2586591;53;20935;-65
2024/02/28 04:09:38;;;;;;;19.73;10.98;;;10.30;71.20;;;;;;2586319;53;20988;-66
2024/02/28 04:12:06;;;;;;;14.95;9.60;;;10.20;71.00;;;;;;2340774;54;20966;-65
2024/02/28 04:14:33;;;;;;;14.15;9.80;;;10.20;71.00;;;;;;2339269;54;20955;-65
2024/02/28 04:17:00;;;;;;;11.93;8.10;;;10.20;71.00;;;;;;2586445;53;20946;-66
2024/02/28 04:19:27;;;;;;;15.02;9.73;;;10.20;70.90;;;;;;2586473;53;21228;-65
2024/02/28 04:21:53;;;;;;;15.48;10.50;;;10.20;70.70;;;;;;2586330;53;20959;-66
2024/02/28 04:24:19;;;;;;;16.67;11.05;;;10.10;70.40;;;;;;2340666;54;20935;-66
2024/02/28 04:26:46;;;;;;;16.23;10.85;;;10.10;70.30;;;;;;2585081;53;20987;-64
2024/02/28 04:29:13;;;;;;;18.25;10.68;;;10.00;70.20;;;;;;2324185;54;20996;-65
2024/02/28 04:31:40;;;;;;;13.35;8.82;;;10.00;70.40;;;;;;2334937;54;21244;-66
2024/02/28 04:34:06;;;;;;;18.02;11.93;;;9.90;71.60;;;;;;2336739;54;21215;-65
2024/02/28 04:36:33;;;;;;;14.90;9.45;;;9.90;71.80;;;;;;2339995;54;20907;-65
2024/02/28 04:39:00;;;;;;;18.55;11.60;;;9.90;71.90;;;;;;2586832;53;21425;-65
2024/02/28 04:41:28;;;;;;;15.65;9.98;;;9.90;72.10;;;;;;2340335;54;20939;-65
2024/02/28 04:43:54;;;;;;;17.52;11.05;;;9.90;72.10;;;;;;2328352;54;21107;-66
2024/02/28 04:46:23;;;;;;;16.25;10.75;;;9.90;72.10;;;;;;2328866;54;20951;-65
2024/02/28 04:48:50;;;;;;;15.48;9.38;;;9.80;72.10;;;;;;2553119;53;20947;-65
2024/02/28 04:51:19;;;;;;;17.23;10.95;;;9.80;72.00;;;;;;2340787;54;21251;-65
2024/02/28 04:53:48;;;;;;;14.30;8.70;;;9.80;72.00;;;;;;2340444;55;20959;-65
2024/02/28 04:56:14;;;;;;;16.00;9.73;;;9.80;71.90;;;;;;2340506;55;21011;-66
2024/02/28 04:58:40;;;;;;;17.23;10.13;;;9.80;71.90;;;;;;2555298;53;21711;-66
2024/02/28 05:01:06;;;;;;;16.90;10.75;;;9.80;71.80;;;;;;2584171;53;21801;-66
2024/02/28 05:03:34;;;;;;;18.00;11.07;;;9.80;71.70;;;;;;2340155;55;21011;-65
2024/02/28 05:06:00;;;;;;;15.15;9.75;;;9.70;71.70;;;;;;2339368;55;21011;-65
2024/02/28 05:08:28;;;;;;;16.83;10.90;;;9.70;71.60;;;;;;2340290;54;20935;-65
2024/02/28 05:10:54;;;;;;;17.60;10.70;;;9.70;71.40;;;;;;2339456;54;20956;-65
2024/02/28 05:13:24;;;;;;;17.60;11.15;;;9.70;71.30;;;;;;2339686;54;20923;-65
2024/02/28 05:15:50;;;;;;;17.05;10.48;;;9.60;71.20;;;;;;2339158;53;21667;-65
2024/02/28 05:18:17;;;;;;;14.45;9.43;;;9.60;71.20;;;;;;2586204;53;20941;-65
2024/02/28 05:20:43;;;;;;;15.27;9.82;;;9.50;71.10;;;;;;2585748;53;21738;-65
2024/02/28 05:23:09;;;;;;;18.77;11.27;;;9.50;71.00;;;;;;2552674;53;21039;-65
2024/02/28 05:25:36;;;;;;;17.90;11.18;;;9.40;70.90;;;;;;2335192;54;20967;-65
2024/02/28 05:28:03;;;;;;;17.10;10.85;;;9.40;70.90;;;;;;2339685;55;21014;-65
2024/02/28 05:30:32;;;;;;;15.80;10.60;;;9.30;70.90;;;;;;2340705;55;20903;-65
2024/02/28 05:32:59;;;;;;;18.35;10.00;;;9.30;71.00;;;;;;2586210;53;21537;-65
2024/02/28 05:35:25;;;;;;;17.70;10.40;;;9.30;71.10;;;;;;2340243;54;21476;-66
2024/02/28 05:37:56;;;;;;;17.85;10.40;;;9.20;71.10;;;;;;2585824;53;20947;-65
2024/02/28 05:40:24;;;;;;;16.10;10.02;;;9.20;71.10;;;;;;2586734;53;20950;-66
2024/02/28 05:42:50;;;;;;;18.67;10.95;;;9.10;71.00;;;;;;2340013;54;20951;-65
2024/02/28 05:45:17;;;;;;;17.77;10.88;;;9.10;71.00;;;;;;2341109;54;20991;-65
2024/02/28 05:47:43;;;;;;;17.87;10.75;;;9.10;71.10;;;;;;2340085;54;21273;-64
2024/02/28 05:50:10;;;;;;;17.08;10.70;;;9.10;71.10;;;;;;2340707;55;20983;-65
2024/02/28 05:52:37;;;;;;;17.48;10.18;;;9.00;71.00;;;;;;2586107;53;20935;-65
2024/02/28 05:55:04;;;;;;;16.17;10.10;;;9.00;70.90;;;;;;2586330;53;20955;-65
2024/02/28 05:57:31;;;;;;;18.45;11.10;;;8.90;70.80;;;;;;2340553;53;20943;-65
2024/02/28 05:59:58;;;;;;;18.70;11.63;;;8.90;70.80;;;;;;2584794;53;20954;-65
2024/02/28 06:02:24;;;;;;;17.90;11.18;;;8.90;70.90;;;;;;2340312;55;20940;-65
2024/02/28 06:04:51;;;;;;;18.17;11.50;;;8.90;70.90;;;;;;2340133;55;20986;-65
2024/02/28 06:07:17;;;;;;;20.20;11.70;;;8.80;70.90;;;;;;2586284;53;20943;-65
2024/02/28 06:09:43;;;;;;;19.35;11.88;;;8.80;71.00;;;;;;2340208;55;20947;-65
2024/02/28 06:12:10;;;;;;;19.75;12.25;;;8.70;70.90;;;;;;2340775;55;21019;-65
2024/02/28 06:14:36;;;;;;;20.55;12.13;;;8.70;70.90;;;;;;2586829;53;20931;-65
2024/02/28 06:17:02;;;;;;;18.65;11.43;;;8.70;70.90;;;;;;2585994;53;21003;-65
2024/02/28 06:19:28;;;;;;;17.90;9.75;;;8.70;70.80;;;;;;2340554;54;21006;-65
2024/02/28 06:21:56;;;;;;;13.65;8.25;;;8.70;70.80;;;;;;2585493;53;20912;-64
2024/02/28 06:24:22;;;;;;;17.65;11.10;;;8.60;70.60;;;;;;2587039;53;21488;-65
2024/02/28 06:26:49;;;;;;;16.05;9.13;;;8.60;70.50;;;;;;2339845;55;20983;-65
2024/02/28 06:29:15;;;;;;;14.70;8.98;;;8.50;70.40;;;;;;2339941;54;20963;-66
2024/02/28 06:31:42;;;;;;;18.20;10.10;;;8.50;70.40;;;;;;2340438;54;21274;-65
2024/02/28 06:34:08;;;;;;;16.75;9.82;;;8.40;70.30;;;;;;2339548;55;21503;-64
2024/02/28 06:36:35;;;;;;;19.85;11.32;;;8.40;70.30;;;;;;2585911;53;21214;-65
2024/02/28 06:39:01;;;;;;;20.15;11.00;;;8.30;70.20;;;;;;2339931;54;20947;-66
2024/02/28 06:41:27;;;;;;;26.05;14.70;;;8.30;70.20;;;;;;2340497;55;20990;-64
2024/02/28 06:43:54;;;;;;;22.50;12.98;;;8.30;70.30;;;;;;2339731;54;20895;-66
2024/02/28 06:46:21;;;;;;;17.67;11.23;;;8.20;70.20;;;;;;2586027;53;20943;-65
2024/02/28 06:48:48;;;;;;;17.67;10.65;;;8.20;70.30;;;;;;2339659;55;21018;-66
2024/02/28 06:51:17;;;;;;;19.45;12.65;;;8.10;70.10;;;;;;2585279;53;20955;-65
2024/02/28 06:53:43;;;;;;;22.48;13.95;;;8.10;70.10;;;;;;2339551;54;20954;-65
2024/02/28 06:56:10;;;;;;;22.90;13.20;;;8.00;70.10;;;;;;2333974;54;21023;-65
2024/02/28 06:58:38;;;;;;;19.60;12.13;;;8.00;70.10;;;;;;2322365;54;20969;-65
2024/02/28 07:01:05;;;;;;;17.33;10.88;;;7.90;70.10;;;;;;2338427;55;21246;-66
2024/02/28 07:03:31;;;;;;;18.33;11.52;;;7.90;70.10;;;;;;2581550;53;21708;-65
2024/02/28 07:05:58;;;;;;;17.25;10.38;;;7.90;70.40;;;;;;2582745;53;20919;-66
2024/02/28 07:08:24;;;;;;;15.25;9.70;;;7.80;70.20;;;;;;2340508;55;21251;-66
2024/02/28 07:10:53;;;;;;;15.15;9.73;;;7.80;70.20;;;;;;2585202;53;21532;-65
2024/02/28 07:13:20;;;;;;;16.02;9.85;;;7.80;70.30;;;;;;2338828;55;20959;-66
2024/02/28 07:15:48;;;;;;;17.55;10.25;;;7.80;70.40;;;;;;2585570;53;21855;-65
2024/02/28 07:18:16;;;;;;;17.20;10.02;;;7.70;70.40;;;;;;2585325;53;20999;-66
2024/02/28 07:20:42;;;;;;;15.90;9.23;;;7.70;70.60;;;;;;2340485;54;20962;-66
2024/02/28 07:23:08;;;;;;;17.75;10.05;;;7.70;70.70;;;;;;2586280;53;21027;-66
2024/02/28 07:25:34;;;;;;;16.98;9.70;;;7.60;70.90;;;;;;2340637;54;20959;-65
2024/02/28 07:28:02;;;;;;;17.37;9.93;;;7.60;71.00;;;;;;2340555;55;20995;-66
2024/02/28 07:30:30;;;;;;;20.33;11.48;;;7.60;71.30;;;;;;2585761;53;21275;-65
2024/02/28 07:32:56;;;;;;;18.85;11.55;;;7.60;71.50;;;;;;2585104;53;20932;-65
2024/02/28 07:35:23;;;;;;;16.85;10.20;;;7.60;71.70;;;;;;2340491;55;20986;-65
2024/02/28 07:37:50;;;;;;;16.73;10.45;;;7.70;72.00;;;;;;2340008;54;21062;-65
2024/02/28 07:40:16;;;;;;;18.27;10.95;;;7.70;72.10;;;;;;2585764;53;21400;-65
2024/02/28 07:42:43;;;;;;;19.12;11.18;;;7.70;72.30;;;;;;2340476;54;20935;-65
2024/02/28 07:45:09;;;;;;;18.40;10.90;;;7.70;72.40;;;;;;2342305;54;21689;-65
2024/02/28 07:47:35;;;;;;;20.55;12.13;;;7.80;72.60;;;;;;2312520;54;21434;-65
2024/02/28 07:50:02;;;;;;;22.67;12.37;;;7.80;72.60;;;;;;2585964;53;20991;-65
2024/02/28 07:52:28;;;;;;;23.38;13.05;;;7.80;72.60;;;;;;2586677;53;20923;-65
2024/02/28 07:54:54;;;;;;;24.83;13.80;;;7.90;72.90;;;;;;2338977;55;21087;-65
2024/02/28 07:57:22;;;;;;;22.70;13.05;;;7.90;72.90;;;;;;2554011;53;21484;-64
2024/02/28 07:59:48;;;;;;;23.42;13.05;;;7.90;72.90;;;;;;2340001;54;21020;-65
2024/02/28 08:02:15;;;;;;;21.50;12.50;;;8.00;73.10;;;;;;2340312;54;21048;-64
2024/02/28 08:04:41;;;;;;;23.00;12.43;;;8.00;73.20;;;;;;2586203;53;20947;-65
2024/02/28 08:07:07;;;;;;;26.37;14.75;;;8.10;73.30;;;;;;2340213;54;20980;-65
2024/02/28 08:09:33;;;;;;;27.13;14.82;;;8.10;73.40;;;;;;2340574;54;21456;-65
2024/02/28 08:12:00;;;;;;;24.42;14.18;;;8.20;73.50;;;;;;2340036;54;20928;-65
2024/02/28 08:14:27;;;;;;;22.75;12.48;;;8.20;73.50;;;;;;2340054;55;21417;-65
2024/02/28 08:16:54;;;;;;;24.37;14.05;;;8.20;73.50;;;;;;2586442;53;20943;-65
2024/02/28 08:19:21;;;;;;;24.73;13.60;;;8.30;73.60;;;;;;2340498;54;20998;-64
2024/02/28 08:21:47;;;;;;;25.67;14.10;;;8.30;73.70;;;;;;2340651;54;20997;-66
2024/02/28 08:24:14;;;;;;;24.60;14.18;;;8.40;73.80;;;;;;2340080;54;21422;-65
2024/02/28 08:26:41;;;;;;;24.80;14.85;;;8.40;73.70;;;;;;2340505;54;20971;-66
2024/02/28 08:29:09;;;;;;;26.55;15.48;;;8.50;73.80;;;;;;2584920;53;21254;-66
2024/02/28 08:31:43;;;;;;;27.23;15.80;;;8.50;73.80;;;;;;2586090;53;21315;-65
2024/02/28 08:34:09;;;;;;;30.00;16.58;;;8.60;73.80;;;;;;2339857;54;20984;-65
2024/02/28 08:36:36;;;;;;;29.25;16.70;;;8.60;73.90;;;;;;2317685;54;20990;-65
2024/02/28 08:39:04;;;;;;;27.67;15.68;;;8.60;73.90;;;;;;2554829;52;21046;-66
2024/02/28 08:41:34;;;;;;;31.15;17.40;;;8.70;74.00;;;;;;2338439;55;21002;-66
2024/02/28 08:44:00;;;;;;;29.83;16.95;;;8.70;73.90;;;;;;2559812;53;20911;-65
2024/02/28 08:46:26;;;;;;;26.12;14.98;;;8.80;74.00;;;;;;2339810;55;20986;-65
2024/02/28 08:48:53;;;;;;;24.45;14.45;;;8.80;74.00;;;;;;2586755;53;20959;-65
2024/02/28 08:51:19;;;;;;;24.77;13.88;;;8.80;74.70;;;;;;2339769;55;21467;-66
2024/02/28 08:53:45;;;;;;;26.08;13.98;;;8.90;74.20;;;;;;2340232;54;20944;-65
2024/02/28 08:56:15;;;;;;;24.30;14.52;;;8.90;74.30;;;;;;2339795;54;20959;-65
2024/02/28 08:58:44;;;;;;;25.75;14.98;;;9.00;74.30;;;;;;2586754;53;20915;-65
2024/02/28 09:01:15;;;;;;;26.30;15.13;;;9.00;74.30;;;;;;2586477;53;21499;-66
2024/02/28 09:03:41;;;;;;;27.58;15.38;;;9.10;74.20;;;;;;2586365;53;20940;-64
2024/02/28 09:06:07;;;;;;;29.85;16.35;;;9.00;74.20;;;;;;2339787;53;21078;-65
2024/02/28 09:08:34;;;;;;;29.58;16.35;;;9.20;74.80;;;;;;2340557;55;20971;-66
2024/02/28 09:11:01;;;;;;;25.90;15.43;;;9.30;75.00;;;;;;2340542;54;20938;-65
2024/02/28 09:13:27;;;;;;;28.77;16.83;;;9.30;75.10;;;;;;2340587;54;21003;-66
2024/02/28 09:15:54;;;;;;;25.15;15.88;;;9.40;75.40;;;;;;2586333;53;21208;-66
2024/02/28 09:18:22;;;;;;;26.80;15.60;;;9.50;75.80;;;;;;2340541;54;21003;-66
2024/02/28 09:20:49;;;;;;;30.67;17.10;;;9.60;76.20;;;;;;2340424;54;20951;-65
2024/02/28 09:23:15;;;;;;;27.62;16.85;;;9.70;76.10;;;;;;2339469;55;21548;-65
2024/02/28 09:25:41;;;;;;;23.75;14.55;;;9.80;76.10;;;;;;2339994;55;21015;-66
2024/02/28 09:28:10;;;;;;;29.58;16.60;;;9.90;76.30;;;;;;2339503;55;20931;-65
2024/02/28 09:30:36;;;;;;;25.65;15.63;;;9.90;76.30;;;;;;2340359;55;20944;-66
2024/02/28 09:33:05;;;;;;;29.05;16.77;;;10.00;75.00;;;;;;2339643;54;20956;-65
2024/02/28 09:35:32;;;;;;;27.17;15.95;;;10.10;74.80;;;;;;2586404;53;20956;-65
2024/02/28 09:37:58;;;;;;;23.27;14.18;;;10.20;74.50;;;;;;2340180;55;21282;-66
2024/02/28 09:40:25;;;;;;;22.73;12.73;;;10.20;74.30;;;;;;2586145;53;21389;-66
2024/02/28 09:42:53;;;;;;;21.15;13.23;;;10.30;74.60;;;;;;2340233;55;20912;-66
2024/02/28 09:45:20;;;;;;;24.65;15.40;;;10.40;74.70;;;;;;2339923;54;20939;-66
2024/02/28 09:47:46;;;;;;;28.42;15.60;;;10.40;74.80;;;;;;2339717;55;21251;-66
2024/02/28 09:50:13;;;;;;;24.45;14.85;;;10.50;74.90;;;;;;2585748;53;21155;-66
2024/02/28 09:52:39;;;;;;;25.30;14.23;;;10.60;74.90;;;;;;2340148;54;21318;-66
2024/02/28 09:55:08;;;;;;;23.77;14.38;;;10.60;74.80;;;;;;2341709;54;20952;-66
2024/02/28 09:57:34;;;;;;;24.75;14.43;;;10.70;74.90;;;;;;2337207;53;20922;-66
2024/02/28 10:00:04;;;;;;;23.48;14.50;;;10.70;74.80;;;;;;2339655;54;20967;-67
2024/02/28 10:02:33;;;;;;;25.77;15.60;;;10.80;74.80;;;;;;2339924;55;20943;-66
2024/02/28 10:05:00;;;;;;;25.75;16.73;;;10.90;75.20;;;;;;2339886;55;21011;-66
2024/02/28 10:07:27;;;;;;;25.12;14.60;;;10.90;75.20;;;;;;2339750;54;20983;-66
2024/02/28 10:09:53;;;;;;;31.35;17.50;;;11.00;75.20;;;;;;2586267;53;21810;-66
2024/02/28 10:12:20;;;;;;;26.35;15.98;;;11.10;75.40;;;;;;2340137;55;20935;-66
2024/02/28 10:14:50;;;;;;;28.62;17.05;;;11.10;75.40;;;;;;2586827;53;20940;-67
2024/02/28 10:17:16;;;;;;;29.20;17.35;;;11.30;75.50;;;;;;2580012;53;21028;-66
2024/02/28 10:19:42;;;;;;;27.85;17.37;;;11.30;75.40;;;;;;2315638;54;21067;-66
2024/02/28 10:22:09;;;;;;;24.55;16.20;;;11.40;75.40;;;;;;2332180;54;21087;-66
2024/02/28 10:24:37;;;;;;;31.05;17.65;;;11.50;75.60;;;;;;2324860;54;20951;-66
2024/02/28 10:27:04;;;;;;;29.12;18.00;;;11.60;75.70;;;;;;2339907;54;21519;-66
2024/02/28 10:29:34;;;;;;;28.45;16.70;;;11.60;75.60;;;;;;2585715;53;20927;-66
2024/02/28 10:32:01;;;;;;;34.08;17.70;;;11.70;75.60;;;;;;2340126;54;21389;-66
2024/02/28 10:34:28;;;;;;;28.08;17.55;;;11.80;75.60;;;;;;2586089;53;21729;-66
2024/02/28 10:36:55;;;;;;;28.60;17.52;;;11.80;75.40;;;;;;2586501;53;20936;-67
2024/02/28 10:39:22;;;;;;;28.95;17.70;;;11.90;75.20;;;;;;2339441;54;20955;-66
2024/02/28 10:41:51;;;;;;;25.85;16.02;;;11.90;75.10;;;;;;2586507;53;21062;-66
2024/02/28 10:44:17;;;;;;;27.35;16.92;;;12.00;75.10;;;;;;2580586;53;20996;-67
2024/02/28 10:46:44;;;;;;;25.77;15.98;;;12.10;75.00;;;;;;2340153;55;20991;-66
2024/02/28 10:49:10;;;;;;;20.88;13.25;;;12.10;74.70;;;;;;2586401;53;21054;-65
2024/02/28 10:51:37;;;;;;;25.62;16.45;;;12.20;74.70;;;;;;2340691;55;20993;-66
2024/02/28 10:54:11;;;;;;;24.20;15.25;;;12.20;74.80;;;;;;2340429;54;21476;-67
2024/02/28 10:56:41;;;;;;;24.33;15.00;;;12.20;74.30;;;;;;2586612;53;21031;-67
2024/02/28 10:59:12;;;;;;;24.77;14.45;;;12.30;74.50;;;;;;2586591;53;21299;-66
2024/02/28 11:01:44;;;;;;;23.62;14.75;;;12.30;74.60;;;;;;2340449;55;20948;-66
2024/02/28 11:04:11;;;;;;;24.70;14.57;;;12.40;74.50;;;;;;2332858;54;21445;-67
2024/02/28 11:07:11;;;;;;;24.42;14.57;;;12.40;74.50;;;;;;2554918;53;20951;-66
2024/02/28 11:09:41;;;;;;;22.45;14.65;;;12.50;73.50;;;;;;2334412;54;21036;-65
2024/02/28 11:12:27;;;;;;;22.05;13.43;;;12.50;74.20;;;;;;2340212;55;20951;-66
2024/02/28 11:15:01;;;;;;;20.65;13.25;;;12.50;73.80;;;;;;2321485;54;21429;-66
2024/02/28 11:17:28;;;;;;;24.85;14.80;;;12.50;73.60;;;;;;2339134;54;20993;-65
2024/02/28 11:19:56;;;;;;;25.52;15.10;;;12.50;74.00;;;;;;2586154;53;21793;-66
2024/02/28 11:22:22;;;;;;;20.67;13.40;;;12.50;74.10;;;;;;2586257;53;21497;-66
2024/02/28 11:24:49;;;;;;;25.50;14.13;;;12.60;73.90;;;;;;2340591;54;21043;-67
2024/02/28 11:27:17;;;;;;;21.45;13.55;;;12.60;74.00;;;;;;2339955;55;21043;-66
2024/02/28 11:29:46;;;;;;;23.02;14.48;;;12.60;75.00;;;;;;2340099;54;21015;-66
2024/02/28 11:32:14;;;;;;;20.20;12.88;;;12.70;74.60;;;;;;2340279;55;20924;-67
2024/02/28 11:34:40;;;;;;;22.15;14.05;;;12.70;74.60;;;;;;2340449;55;20971;-65
2024/02/28 11:37:11;;;;;;;23.65;14.40;;;12.80;74.70;;;;;;2565944;53;20976;-66
2024/02/28 11:39:38;;;;;;;23.20;13.25;;;12.90;74.50;;;;;;2331127;54;21026;-67
2024/02/28 11:42:15;;;;;;;21.23;13.45;;;12.90;74.90;;;;;;2340766;54;20971;-65
2024/02/28 11:44:41;;;;;;;19.92;12.75;;;13.00;74.60;;;;;;2586387;53;20986;-65
2024/02/28 11:47:10;;;;;;;21.27;13.15;;;13.10;75.30;;;;;;2586457;53;21033;-67
2024/02/28 11:49:40;;;;;;;21.58;13.55;;;13.10;75.00;;;;;;2320770;54;21842;-67
2024/02/28 11:52:06;;;;;;;19.48;12.37;;;13.20;74.90;;;;;;2337984;54;20978;-66
2024/02/28 11:54:33;;;;;;;20.50;12.52;;;13.30;75.00;;;;;;2585492;53;20940;-66
2024/02/28 11:56:59;;;;;;;21.80;13.02;;;13.40;75.00;;;;;;2340158;55;20947;-65
2024/02/28 11:59:26;;;;;;;22.13;13.77;;;13.40;74.90;;;;;;2339786;55;20936;-66
2024/02/28 12:01:55;;;;;;;18.12;11.57;;;13.40;74.80;;;;;;2340330;54;21020;-66
2024/02/28 12:04:25;;;;;;;21.52;13.25;;;13.50;74.90;;;;;;2585951;53;20959;-66
2024/02/28 12:06:52;;;;;;;17.70;11.40;;;13.60;74.90;;;;;;2340239;55;20959;-67
2024/02/28 12:09:19;;;;;;;15.48;10.93;;;13.60;74.80;;;;;;2311972;54;20987;-67
2024/02/28 12:11:47;;;;;;;18.83;11.40;;;13.70;74.60;;;;;;2313415;54;21841;-66
2024/02/28 12:14:13;;;;;;;16.48;10.35;;;13.70;74.50;;;;;;2571825;53;20956;-66
2024/02/28 12:16:39;;;;;;;19.02;11.85;;;13.80;74.50;;;;;;2340582;53;21884;-66
2024/02/28 12:19:12;;;;;;;18.98;12.10;;;13.80;74.50;;;;;;2341338;53;20966;-67
2024/02/28 12:21:38;;;;;;;;;;;13.80;73.80;;;;;;2344499;53;20942;-67
2024/02/28 12:24:08;;;;;;;16.98;11.23;;;13.90;72.80;;;;;;2587280;53;20360;-66
2024/02/28 12:26:36;;;;;;;17.10;11.27;;;13.90;74.10;;;;;;2340790;53;20954;-67
2024/02/28 12:29:02;;;;;;;15.02;10.00;;;13.90;74.00;;;;;;2587289;53;22139;-68
2024/02/28 12:31:28;;;;;;;16.50;10.40;;;14.00;74.10;;;;;;2340863;53;21447;-67
2024/02/28 12:33:55;;;;;;;16.08;10.50;;;14.00;74.10;;;;;;2341274;53;21034;-66